KPWA/PWA METAR and TAF weather

Enter ICAO airport designator
Station Type Date Time Source
KPWA METAR 2021/05/11 16:25 UTC NOAA

KPWA 111625Z 35005KT 6SM -RA BR SCT009 BKN013 OVC044 11/09 A3017 RMK AO2 P0004 T01110089


Station Type Date Time Source
KPWA Decoded METAR 2021/05/11 16:25 UTC NOAA

WILEY POST, OK, United States (KPWA) 35-32N 97-39W 397M
May 11, 2021 - 12:25 PM EDT / 2021.05.11 1625 UTC
Wind: from the N (350 degrees) at 6 MPH (5 KT):0
Visibility: 6 mile(s):0
Sky conditions: overcast
Weather: light rain; mist
Precipitation last hour: 0.04 inches
Temperature: 52.0 F (11.1 C)
Dew Point: 48.0 F (8.9 C)
Relative Humidity: 86%
Pressure (altimeter): 30.17 in. Hg (1021 hPa)
ob: KPWA 111625Z 35005KT 6SM -RA BR SCT009 BKN013 OVC044 11/09 A3017 RMK AO2 P0004 T01110089
cycle: 16

Station Type Date Time Source
KPWA TAF UTC NOAA

Error!

Example: see airport list